Time;durP1;ratioP1;P1;durP2;ratioP2;P2;SDS_P1;SDS_P2;PMS_P1;PMS_P2;Temp;Humidity;BMP_temperature;BMP_pressure;BME280_temperature;BME280_humidity;BME280_pressure;Samples;Min_cycle;Max_cycle;Signal;HPM_P1;HPM_P2
2023/04/24 00:09:40;;;;;;;1.35;0.95;;;9.50;99.90;;;;;;20810619;28;20044;-40
2023/04/24 00:19:41;;;;;;;1.88;0.45;;;9.50;99.90;;;;;;20797663;28;20037;-40
2023/04/24 00:29:42;;;;;;;0.80;0.40;;;9.50;99.90;;;;;;20811669;28;20456;-40
2023/04/24 00:39:43;;;;;;;1.30;0.50;;;9.50;99.90;;;;;;20782796;28;20045;-40
2023/04/24 00:49:44;;;;;;;1.65;0.57;;;9.50;99.90;;;;;;20807677;28;20545;-40
2023/04/24 00:59:45;;;;;;;1.33;0.57;;;9.50;99.90;;;;;;20812875;28;20113;-41
2023/04/24 01:09:48;;;;;;;2.13;0.80;;;9.50;99.90;;;;;;20804856;28;20051;-41
2023/04/24 01:19:49;;;;;;;2.58;1.17;;;9.60;99.90;;;;;;20786281;28;20041;-40
2023/04/24 01:29:51;;;;;;;1.10;0.30;;;9.60;99.90;;;;;;20800068;28;22236;-41
2023/04/24 01:39:53;;;;;;;0.98;0.30;;;9.40;99.90;;;;;;20800239;28;20736;-41
2023/04/24 01:49:54;;;;;;;1.52;0.93;;;9.40;99.90;;;;;;20801324;28;20049;-41
2023/04/24 01:59:55;;;;;;;3.63;0.80;;;9.50;99.90;;;;;;20804332;28;20581;-41
2023/04/24 02:09:56;;;;;;;2.72;0.88;;;9.50;99.90;;;;;;20796512;28;20067;-41
2023/04/24 02:19:57;;;;;;;2.20;0.75;;;9.50;99.90;;;;;;20794863;28;20041;-41
2023/04/24 02:29:58;;;;;;;2.55;0.90;;;9.40;99.90;;;;;;20794687;28;20114;-41
2023/04/24 02:39:59;;;;;;;2.80;1.05;;;9.40;99.90;;;;;;20808396;28;20037;-41
2023/04/24 02:50:01;;;;;;;5.22;0.93;;;9.30;99.90;;;;;;20811100;28;20049;-40
2023/04/24 03:00:03;;;;;;;3.60;1.10;;;9.30;99.90;;;;;;20811473;28;20040;-41
2023/04/24 03:10:05;;;;;;;2.35;0.70;;;9.30;99.90;;;;;;20806932;28;20040;-40
2023/04/24 03:20:09;;;;;;;1.95;0.57;;;9.30;99.90;;;;;;20818433;28;20450;-41
2023/04/24 03:30:10;;;;;;;3.97;1.02;;;9.20;99.90;;;;;;20818082;28;20045;-40
2023/04/24 03:40:11;;;;;;;5.00;1.27;;;9.20;99.90;;;;;;20799715;28;20630;-41
2023/04/24 03:50:12;;;;;;;5.13;2.08;;;9.20;99.90;;;;;;20720814;28;20110;-41
2023/04/24 04:00:14;;;;;;;3.80;1.35;;;9.20;99.90;;;;;;20721362;28;20056;-41
2023/04/24 04:10:16;;;;;;;2.55;1.52;;;9.20;99.90;;;;;;20729186;28;20046;-41
2023/04/24 04:20:17;;;;;;;5.47;1.70;;;9.20;99.90;;;;;;20720327;28;20041;-41
2023/04/24 04:30:20;;;;;;;4.25;1.88;;;9.20;99.90;;;;;;20722152;28;20053;-41
2023/04/24 04:40:21;;;;;;;3.30;1.27;;;9.20;99.90;;;;;;20724690;28;20033;-40
2023/04/24 04:50:22;;;;;;;3.22;1.50;;;9.20;99.90;;;;;;20814344;28;20460;-40
2023/04/24 05:00:25;;;;;;;1.00;0.25;;;9.10;99.90;;;;;;20803419;28;20381;-41
2023/04/24 05:10:27;;;;;;;0.65;0.13;;;8.90;99.90;;;;;;20807340;28;20497;-40
2023/04/24 05:20:28;;;;;;;1.15;0.32;;;8.80;99.90;;;;;;20815269;28;20068;-42
2023/04/24 05:30:29;;;;;;;0.65;0.22;;;8.70;99.90;;;;;;20814101;28;22247;-41
2023/04/24 05:40:30;;;;;;;0.68;0.50;;;8.80;99.90;;;;;;20805762;28;20745;-41
2023/04/24 05:50:31;;;;;;;1.77;0.50;;;8.80;99.90;;;;;;20812589;28;20044;-41
2023/04/24 06:00:33;;;;;;;4.15;2.15;;;8.80;99.90;;;;;;20797374;28;20408;-40
2023/04/24 06:10:34;;;;;;;6.53;3.20;;;9.10;99.90;;;;;;20802731;28;20041;-41
2023/04/24 06:20:35;;;;;;;9.80;4.63;;;9.00;99.90;;;;;;20820008;28;20036;-41
2023/04/24 06:30:36;;;;;;;9.27;5.38;;;8.90;99.90;;;;;;20811383;28;20076;-41
2023/04/24 06:40:37;;;;;;;17.75;5.38;;;8.80;99.90;;;;;;20803874;28;20061;-41
2023/04/24 06:50:38;;;;;;;9.02;4.00;;;8.70;99.90;;;;;;20803655;28;20052;-41
2023/04/24 07:00:39;;;;;;;15.82;4.63;;;8.70;99.90;;;;;;20820197;28;20043;-41
2023/04/24 07:10:40;;;;;;;11.02;3.42;;;8.70;99.90;;;;;;20807225;28;20497;-41
2023/04/24 07:20:41;;;;;;;6.07;3.00;;;8.60;99.90;;;;;;20814818;28;20052;-41
2023/04/24 07:30:42;;;;;;;13.35;3.45;;;8.70;99.90;;;;;;20820048;28;20416;-41
2023/04/24 07:40:43;;;;;;;8.70;2.75;;;8.70;99.90;;;;;;20815812;28;20128;-42
2023/04/24 07:50:45;;;;;;;10.90;3.13;;;8.70;99.90;;;;;;20816441;28;20060;-42
2023/04/24 08:00:46;;;;;;;6.32;1.85;;;8.70;99.90;;;;;;20818293;28;20459;-42
2023/04/24 08:10:47;;;;;;;7.13;1.52;;;8.60;99.90;;;;;;20804938;28;20404;-42
2023/04/24 08:20:48;;;;;;;4.28;1.00;;;8.60;99.90;;;;;;20821802;28;20041;-42
2023/04/24 08:30:54;;;;;;;8.88;1.70;;;8.70;99.90;;;;;;20796768;28;20637;-42
2023/04/24 08:40:58;;;;;;;3.28;1.08;;;8.80;90.40;;;;;;20805325;28;20037;-42
2023/04/24 08:50:59;;;;;;;2.35;0.90;;;8.80;62.90;;;;;;20820581;28;20590;-43
2023/04/24 09:01:01;;;;;;;2.55;0.82;;;8.90;44.80;;;;;;20820059;28;20047;-42
2023/04/24 09:11:03;;;;;;;4.88;0.90;;;8.80;35.30;;;;;;20819698;28;20041;-43
2023/04/24 09:21:08;;;;;;;6.45;1.83;;;8.90;23.40;;;;;;20813488;28;20420;-42
2023/04/24 09:31:17;;;;;;;8.13;0.80;;;9.10;8.70;;;;;;20807175;28;20428;-43
2023/04/24 09:41:19;;;;;;;2.28;0.68;;;9.30;1.00;;;;;;20807924;28;20041;-43
2023/04/24 09:51:35;;;;;;;2.65;0.70;;;9.50;1.00;;;;;;20811777;28;20033;-43
2023/04/24 10:01:38;;;;;;;1.50;0.70;;;9.50;1.00;;;;;;20802217;28;20494;-43
2023/04/24 10:11:43;;;;;;;2.60;0.70;;;9.30;1.00;;;;;;20814938;28;20037;-43
2023/04/24 10:21:47;;;;;;;0.95;0.13;;;9.20;1.00;;;;;;20807898;28;20047;-43
2023/04/24 10:31:48;;;;;;;1.35;1.02;;;9.40;1.00;;;;;;20808991;28;20475;-43
2023/04/24 10:41:49;;;;;;;3.58;0.52;;;10.00;1.00;;;;;;20800162;28;20049;-43
2023/04/24 10:51:53;;;;;;;1.85;0.40;;;10.40;1.00;;;;;;20799951;28;20037;-44
2023/04/24 11:01:57;;;;;;;2.90;0.80;;;10.20;1.00;;;;;;20816602;28;23958;-43
2023/04/24 11:12:12;;;;;;;2.95;0.50;;;9.60;1.00;;;;;;20822567;28;20041;-43
2023/04/24 11:22:18;;;;;;;0.30;0.05;;;9.40;9.90;;;;;;20814705;28;20037;-43
2023/04/24 11:32:23;;;;;;;0.75;0.17;;;9.50;2.30;;;;;;20810332;28;20041;-44
2023/04/24 11:42:25;;;;;;;0.32;0.17;;;10.40;1.00;;;;;;20812424;28;20365;-43
2023/04/24 11:52:30;;;;;;;3.53;0.98;;;11.00;1.00;;;;;;20811669;28;20045;-43
2023/04/24 12:02:31;;;;;;;2.55;0.85;;;10.80;1.00;;;;;;20807011;28;20037;-43
2023/04/24 12:12:32;;;;;;;2.10;0.63;;;10.70;1.00;;;;;;20808661;28;20041;-44
2023/04/24 12:22:48;;;;;;;1.67;0.47;;;11.80;1.00;;;;;;20810129;28;20037;-44
2023/04/24 12:32:50;;;;;;;2.30;0.70;;;11.40;1.00;;;;;;20810592;28;21565;-44
2023/04/24 12:42:51;;;;;;;4.72;0.70;;;11.00;1.00;;;;;;20817265;28;20032;-43
2023/04/24 12:52:52;;;;;;;6.30;1.35;;;10.60;1.00;;;;;;20812538;28;20408;-43
2023/04/24 13:02:54;;;;;;;8.77;1.65;;;10.20;1.00;;;;;;20808350;28;20036;-43
2023/04/24 13:12:55;;;;;;;4.53;1.38;;;10.50;1.00;;;;;;20812360;28;20091;-44
2023/04/24 13:22:56;;;;;;;6.40;2.10;;;10.70;1.00;;;;;;20818614;28;20040;-43
2023/04/24 13:32:57;;;;;;;5.80;1.25;;;12.40;1.00;;;;;;20804392;28;20052;-43
2023/04/24 13:42:58;;;;;;;3.13;1.05;;;12.20;1.00;;;;;;20808031;28;20044;-44
2023/04/24 13:53:01;;;;;;;5.13;1.00;;;12.80;1.00;;;;;;20802327;28;20052;-43
2023/04/24 14:03:02;;;;;;;10.30;1.77;;;11.90;1.00;;;;;;20813036;28;20501;-43
2023/04/24 14:13:03;;;;;;;3.00;1.00;;;11.40;1.00;;;;;;20800386;28;20071;-44
2023/04/24 14:23:04;;;;;;;4.07;1.73;;;11.80;1.00;;;;;;20811664;28;20128;-43
2023/04/24 14:33:05;;;;;;;10.07;2.33;;;11.60;1.00;;;;;;20811971;28;20128;-43
2023/04/24 14:43:06;;;;;;;5.00;1.70;;;11.30;1.00;;;;;;20807673;28;20061;-44
2023/04/24 14:53:07;;;;;;;5.78;1.50;;;12.30;1.00;;;;;;20788340;28;20447;-43
2023/04/24 15:03:08;;;;;;;2.85;0.93;;;11.80;1.00;;;;;;20796943;28;20037;-44
2023/04/24 15:13:15;;;;;;;3.20;1.00;;;10.80;1.00;;;;;;20798191;28;20053;-43
2023/04/24 15:23:16;;;;;;;5.10;1.80;;;10.30;1.00;;;;;;20789392;28;20048;-43
2023/04/24 15:33:17;;;;;;;3.65;1.83;;;11.00;1.00;;;;;;20776146;28;20044;-44
2023/04/24 15:43:19;;;;;;;3.40;1.60;;;11.50;1.00;;;;;;20791545;28;20048;-45
2023/04/24 15:53:23;;;;;;;5.65;2.13;;;11.20;1.00;;;;;;20805474;28;20088;-43
2023/04/24 16:03:24;;;;;;;7.22;1.42;;;11.10;1.00;;;;;;20802981;28;20030;-43
2023/04/24 16:13:25;;;;;;;3.20;1.30;;;11.00;1.00;;;;;;20791064;28;20048;-44
2023/04/24 16:23:26;;;;;;;5.70;1.98;;;10.90;1.00;;;;;;20822385;28;20028;-44
2023/04/24 16:33:27;;;;;;;7.30;1.70;;;10.60;1.00;;;;;;20810443;28;20040;-44
2023/04/24 16:43:28;;;;;;;14.15;2.60;;;10.40;1.00;;;;;;20803547;28;20530;-44
2023/04/24 16:53:30;;;;;;;12.32;1.63;;;10.30;1.00;;;;;;20795582;28;20598;-43
2023/04/24 17:03:31;;;;;;;4.10;1.23;;;10.20;1.00;;;;;;20789484;28;20655;-43
2023/04/24 17:13:33;;;;;;;5.95;1.38;;;10.10;1.00;;;;;;20807007;28;21997;-42
2023/04/24 17:23:34;;;;;;;3.17;1.20;;;9.80;1.00;;;;;;20805124;28;20048;-43
2023/04/24 17:33:35;;;;;;;5.90;2.33;;;9.80;1.00;;;;;;20784227;28;20049;-42
2023/04/24 17:43:36;;;;;;;6.93;1.55;;;9.70;1.00;;;;;;20798184;28;21330;-42
2023/04/24 17:53:37;;;;;;;10.38;2.55;;;9.50;1.00;;;;;;20799859;28;20244;-43
2023/04/24 18:03:38;;;;;;;6.63;1.63;;;9.50;1.00;;;;;;20804956;28;20058;-43
2023/04/24 18:13:42;;;;;;;7.32;2.40;;;9.50;1.00;;;;;;20805377;28;20033;-43
2023/04/24 18:23:43;;;;;;;7.20;1.23;;;9.50;1.00;;;;;;20804200;28;20037;-43
2023/04/24 18:33:44;;;;;;;5.63;1.88;;;9.40;1.00;;;;;;20811995;28;20033;-43
2023/04/24 18:43:46;;;;;;;2.00;0.77;;;9.20;1.00;;;;;;20798533;28;21491;-42
2023/04/24 18:53:47;;;;;;;2.03;1.02;;;9.20;1.00;;;;;;20798086;28;20473;-43
2023/04/24 19:03:48;;;;;;;0.95;0.30;;;8.90;1.00;;;;;;20801249;28;20040;-43
2023/04/24 19:13:49;;;;;;;1.70;0.57;;;8.80;1.00;;;;;;20814274;28;20040;-43
2023/04/24 19:23:51;;;;;;;2.75;1.40;;;8.60;1.00;;;;;;20790827;28;20548;-43
2023/04/24 19:33:52;;;;;;;0.90;0.40;;;8.60;1.00;;;;;;20818615;28;20042;-43
2023/04/24 19:43:53;;;;;;;1.23;0.47;;;8.50;1.00;;;;;;20815141;28;20047;-43
2023/04/24 19:53:54;;;;;;;2.55;0.82;;;8.50;1.00;;;;;;20815059;28;20053;-43
2023/04/24 20:03:55;;;;;;;1.67;0.43;;;8.40;1.00;;;;;;20800375;28;20044;-43
2023/04/24 20:13:56;;;;;;;7.30;2.15;;;8.20;1.00;;;;;;20800203;28;20053;-43
2023/04/24 20:23:58;;;;;;;3.22;0.60;;;8.20;1.00;;;;;;20797881;28;20068;-43
2023/04/24 20:33:59;;;;;;;4.40;0.70;;;8.20;1.00;;;;;;20803794;28;20048;-43
2023/04/24 20:44:00;;;;;;;1.88;0.45;;;8.10;1.00;;;;;;20813435;28;20042;-43
2023/04/24 20:54:02;;;;;;;7.85;0.93;;;8.00;1.00;;;;;;20792134;28;20557;-43
2023/04/24 21:04:03;;;;;;;2.28;0.80;;;8.00;1.00;;;;;;20793343;28;20485;-43
2023/04/24 21:14:04;;;;;;;1.48;0.57;;;8.10;1.00;;;;;;20803943;28;20037;-43
2023/04/24 21:24:06;;;;;;;3.75;0.95;;;7.90;1.00;;;;;;20818969;28;20052;-43
2023/04/24 21:34:07;;;;;;;1.40;0.57;;;7.80;1.00;;;;;;20807990;28;20506;-43
2023/04/24 21:44:08;;;;;;;8.93;1.25;;;7.80;1.00;;;;;;20799761;28;20045;-43
2023/04/24 21:54:09;;;;;;;2.72;0.75;;;7.90;1.00;;;;;;20792860;28;20056;-43
2023/04/24 22:04:10;;;;;;;5.95;0.90;;;7.80;1.00;;;;;;20795939;28;20044;-43
2023/04/24 22:14:11;;;;;;;2.13;1.00;;;7.60;3.50;;;;;;20775385;28;20037;-43
2023/04/24 22:24:14;;;;;;;2.15;0.70;;;7.50;7.20;;;;;;20784207;28;20053;-43
2023/04/24 22:34:15;;;;;;;4.50;1.15;;;7.50;8.70;;;;;;20801911;28;20507;-43
2023/04/24 22:44:16;;;;;;;3.67;1.05;;;7.30;8.10;;;;;;20789977;28;20053;-43
2023/04/24 22:54:19;;;;;;;3.25;1.33;;;7.20;5.00;;;;;;20811586;28;20480;-43
2023/04/24 23:04:20;;;;;;;3.95;1.67;;;7.10;6.20;;;;;;20800141;28;20036;-43
2023/04/24 23:14:23;;;;;;;4.90;1.70;;;7.00;4.70;;;;;;20802150;28;20033;-43
2023/04/24 23:24:25;;;;;;;2.50;0.93;;;6.80;7.60;;;;;;20810619;28;20041;-43
2023/04/24 23:34:27;;;;;;;5.20;1.83;;;6.60;10.10;;;;;;20809699;28;20040;-43
2023/04/24 23:44:29;;;;;;;3.28;0.95;;;6.50;13.20;;;;;;20775196;28;20072;-43
2023/04/24 23:54:30;;;;;;;6.85;1.92;;;6.60;23.50;;;;;;20793383;28;20045;-43
